sensor_id;sensor_type;location;lat;lon;timestamp;P1;durP1;ratioP1;P2;durP2;ratioP2
71395;SDS011;59888;55.814;37.132;2023-05-15T00:00:57;10.65;;;6.57;;
71395;SDS011;59888;55.814;37.132;2023-05-15T00:03:23;10.07;;;6.20;;
71395;SDS011;59888;55.814;37.132;2023-05-15T00:05:50;13.50;;;7.13;;
71395;SDS011;59888;55.814;37.132;2023-05-15T00:08:16;9.50;;;6.47;;
71395;SDS011;59888;55.814;37.132;2023-05-15T00:10:43;10.73;;;6.18;;
71395;SDS011;59888;55.814;37.132;2023-05-15T00:13:09;11.98;;;5.90;;
71395;SDS011;59888;55.814;37.132;2023-05-15T00:15:34;8.27;;;6.20;;
71395;SDS011;59888;55.814;37.132;2023-05-15T00:18:01;10.77;;;6.60;;
71395;SDS011;59888;55.814;37.132;2023-05-15T00:20:26;8.90;;;5.78;;
71395;SDS011;59888;55.814;37.132;2023-05-15T00:22:52;9.32;;;6.10;;
71395;SDS011;59888;55.814;37.132;2023-05-15T00:25:18;9.32;;;5.72;;
71395;SDS011;59888;55.814;37.132;2023-05-15T00:27:44;9.93;;;5.85;;
71395;SDS011;59888;55.814;37.132;2023-05-15T00:30:11;9.55;;;6.03;;
71395;SDS011;59888;55.814;37.132;2023-05-15T00:32:38;9.27;;;6.00;;
71395;SDS011;59888;55.814;37.132;2023-05-15T00:35:04;10.68;;;6.28;;
71395;SDS011;59888;55.814;37.132;2023-05-15T00:37:31;10.70;;;5.90;;
71395;SDS011;59888;55.814;37.132;2023-05-15T00:39:56;10.32;;;6.10;;
71395;SDS011;59888;55.814;37.132;2023-05-15T00:42:24;11.13;;;6.28;;
71395;SDS011;59888;55.814;37.132;2023-05-15T00:44:51;9.55;;;5.95;;
71395;SDS011;59888;55.814;37.132;2023-05-15T00:47:18;10.40;;;6.40;;
71395;SDS011;59888;55.814;37.132;2023-05-15T00:49:46;12.60;;;6.07;;
71395;SDS011;59888;55.814;37.132;2023-05-15T00:52:13;12.20;;;6.10;;
71395;SDS011;59888;55.814;37.132;2023-05-15T00:54:40;12.75;;;5.95;;
71395;SDS011;59888;55.814;37.132;2023-05-15T00:57:07;9.63;;;5.75;;
71395;SDS011;59888;55.814;37.132;2023-05-15T00:59:35;9.55;;;5.60;;
71395;SDS011;59888;55.814;37.132;2023-05-15T01:02:03;10.52;;;6.30;;
71395;SDS011;59888;55.814;37.132;2023-05-15T01:04:30;12.13;;;6.40;;
71395;SDS011;59888;55.814;37.132;2023-05-15T01:06:56;9.70;;;5.97;;
71395;SDS011;59888;55.814;37.132;2023-05-15T01:09:23;8.80;;;6.18;;
71395;SDS011;59888;55.814;37.132;2023-05-15T01:11:52;9.13;;;6.30;;
71395;SDS011;59888;55.814;37.132;2023-05-15T01:14:19;9.48;;;5.93;;
71395;SDS011;59888;55.814;37.132;2023-05-15T01:16:45;9.63;;;6.45;;
71395;SDS011;59888;55.814;37.132;2023-05-15T01:19:11;13.02;;;6.70;;
71395;SDS011;59888;55.814;37.132;2023-05-15T01:40:50;11.63;;;6.55;;
71395;SDS011;59888;55.814;37.132;2023-05-15T01:43:22;10.38;;;6.47;;
71395;SDS011;59888;55.814;37.132;2023-05-15T01:45:52;8.88;;;6.72;;
71395;SDS011;59888;55.814;37.132;2023-05-15T01:48:20;10.65;;;6.50;;
71395;SDS011;59888;55.814;37.132;2023-05-15T01:50:47;10.05;;;6.80;;
71395;SDS011;59888;55.814;37.132;2023-05-15T01:53:15;11.75;;;6.72;;
71395;SDS011;59888;55.814;37.132;2023-05-15T01:55:44;12.55;;;5.97;;
71395;SDS011;59888;55.814;37.132;2023-05-15T01:58:11;9.95;;;6.53;;
71395;SDS011;59888;55.814;37.132;2023-05-15T02:00:38;11.80;;;7.00;;
71395;SDS011;59888;55.814;37.132;2023-05-15T02:03:07;10.70;;;6.00;;
71395;SDS011;59888;55.814;37.132;2023-05-15T02:05:33;10.70;;;6.05;;
71395;SDS011;59888;55.814;37.132;2023-05-15T02:08:01;11.90;;;6.35;;
71395;SDS011;59888;55.814;37.132;2023-05-15T02:10:29;11.02;;;6.18;;
71395;SDS011;59888;55.814;37.132;2023-05-15T02:12:56;10.23;;;6.18;;
71395;SDS011;59888;55.814;37.132;2023-05-15T02:15:26;9.13;;;6.25;;
71395;SDS011;59888;55.814;37.132;2023-05-15T02:17:54;9.23;;;6.15;;
71395;SDS011;59888;55.814;37.132;2023-05-15T02:20:21;9.10;;;6.00;;
71395;SDS011;59888;55.814;37.132;2023-05-15T02:22:47;8.20;;;5.80;;
71395;SDS011;59888;55.814;37.132;2023-05-15T02:25:13;10.13;;;6.68;;
71395;SDS011;59888;55.814;37.132;2023-05-15T02:27:47;10.23;;;6.47;;
71395;SDS011;59888;55.814;37.132;2023-05-15T02:30:26;8.63;;;5.75;;
71395;SDS011;59888;55.814;37.132;2023-05-15T02:35:47;10.20;;;5.75;;
71395;SDS011;59888;55.814;37.132;2023-05-15T02:38:54;11.50;;;6.30;;
71395;SDS011;59888;55.814;37.132;2023-05-15T02:41:21;11.98;;;6.50;;
71395;SDS011;59888;55.814;37.132;2023-05-15T02:43:49;8.93;;;5.30;;
71395;SDS011;59888;55.814;37.132;2023-05-15T02:46:16;8.32;;;6.25;;
71395;SDS011;59888;55.814;37.132;2023-05-15T02:48:44;9.05;;;6.00;;
71395;SDS011;59888;55.814;37.132;2023-05-15T02:51:11;10.73;;;5.95;;
71395;SDS011;59888;55.814;37.132;2023-05-15T02:53:38;8.70;;;6.30;;
71395;SDS011;59888;55.814;37.132;2023-05-15T02:56:05;10.27;;;6.05;;
71395;SDS011;59888;55.814;37.132;2023-05-15T02:58:32;14.13;;;6.05;;
71395;SDS011;59888;55.814;37.132;2023-05-15T03:00:58;12.05;;;6.82;;
71395;SDS011;59888;55.814;37.132;2023-05-15T03:03:25;9.80;;;5.93;;
71395;SDS011;59888;55.814;37.132;2023-05-15T03:05:51;12.48;;;6.00;;
71395;SDS011;59888;55.814;37.132;2023-05-15T03:08:17;10.30;;;5.95;;
71395;SDS011;59888;55.814;37.132;2023-05-15T03:10:44;9.80;;;6.25;;
71395;SDS011;59888;55.814;37.132;2023-05-15T03:13:10;8.50;;;5.82;;
71395;SDS011;59888;55.814;37.132;2023-05-15T03:15:36;11.00;;;6.20;;
71395;SDS011;59888;55.814;37.132;2023-05-15T03:18:03;10.15;;;5.68;;
71395;SDS011;59888;55.814;37.132;2023-05-15T03:20:29;10.23;;;5.85;;
71395;SDS011;59888;55.814;37.132;2023-05-15T03:22:55;13.20;;;5.43;;
71395;SDS011;59888;55.814;37.132;2023-05-15T03:25:21;10.70;;;6.68;;
71395;SDS011;59888;55.814;37.132;2023-05-15T03:27:47;10.40;;;5.50;;
71395;SDS011;59888;55.814;37.132;2023-05-15T03:30:13;12.40;;;5.90;;
71395;SDS011;59888;55.814;37.132;2023-05-15T03:32:40;8.02;;;5.28;;
71395;SDS011;59888;55.814;37.132;2023-05-15T03:35:06;9.07;;;5.00;;
71395;SDS011;59888;55.814;37.132;2023-05-15T03:37:32;8.05;;;5.10;;
71395;SDS011;59888;55.814;37.132;2023-05-15T03:39:58;7.53;;;4.70;;
71395;SDS011;59888;55.814;37.132;2023-05-15T03:42:24;7.00;;;4.72;;
71395;SDS011;59888;55.814;37.132;2023-05-15T03:44:52;7.53;;;4.75;;
71395;SDS011;59888;55.814;37.132;2023-05-15T03:47:18;12.20;;;4.82;;
71395;SDS011;59888;55.814;37.132;2023-05-15T03:49:44;10.98;;;4.55;;
71395;SDS011;59888;55.814;37.132;2023-05-15T03:52:11;7.70;;;4.50;;
71395;SDS011;59888;55.814;37.132;2023-05-15T03:54:37;9.68;;;4.63;;
71395;SDS011;59888;55.814;37.132;2023-05-15T03:57:03;9.30;;;4.30;;
71395;SDS011;59888;55.814;37.132;2023-05-15T03:59:30;7.03;;;4.30;;
71395;SDS011;59888;55.814;37.132;2023-05-15T04:01:56;6.60;;;3.92;;
71395;SDS011;59888;55.814;37.132;2023-05-15T04:04:22;9.63;;;4.10;;
71395;SDS011;59888;55.814;37.132;2023-05-15T04:06:49;7.80;;;4.25;;
71395;SDS011;59888;55.814;37.132;2023-05-15T04:09:15;7.18;;;4.00;;
71395;SDS011;59888;55.814;37.132;2023-05-15T04:11:41;6.97;;;3.90;;
71395;SDS011;59888;55.814;37.132;2023-05-15T04:14:08;7.80;;;3.35;;
71395;SDS011;59888;55.814;37.132;2023-05-15T04:16:37;4.97;;;3.08;;
71395;SDS011;59888;55.814;37.132;2023-05-15T04:19:03;7.35;;;3.03;;
71395;SDS011;59888;55.814;37.132;2023-05-15T04:21:28;5.57;;;3.10;;
71395;SDS011;59888;55.814;37.132;2023-05-15T04:23:54;7.78;;;2.95;;
71395;SDS011;59888;55.814;37.132;2023-05-15T04:26:20;4.97;;;3.15;;
71395;SDS011;59888;55.814;37.132;2023-05-15T04:28:46;6.82;;;2.90;;
71395;SDS011;59888;55.814;37.132;2023-05-15T04:31:12;6.22;;;2.80;;
71395;SDS011;59888;55.814;37.132;2023-05-15T04:33:38;5.07;;;2.55;;
71395;SDS011;59888;55.814;37.132;2023-05-15T04:36:05;5.53;;;2.30;;
71395;SDS011;59888;55.814;37.132;2023-05-15T04:38:31;3.67;;;1.67;;
71395;SDS011;59888;55.814;37.132;2023-05-15T04:40:57;3.72;;;2.03;;
71395;SDS011;59888;55.814;37.132;2023-05-15T04:43:23;3.03;;;1.70;;
71395;SDS011;59888;55.814;37.132;2023-05-15T04:45:49;2.97;;;2.08;;
71395;SDS011;59888;55.814;37.132;2023-05-15T04:48:15;3.10;;;1.50;;
71395;SDS011;59888;55.814;37.132;2023-05-15T04:50:43;2.65;;;1.70;;
71395;SDS011;59888;55.814;37.132;2023-05-15T04:53:10;4.78;;;2.45;;
71395;SDS011;59888;55.814;37.132;2023-05-15T04:55:36;6.30;;;2.00;;
71395;SDS011;59888;55.814;37.132;2023-05-15T04:58:02;3.47;;;1.73;;
71395;SDS011;59888;55.814;37.132;2023-05-15T05:00:27;5.25;;;1.90;;
71395;SDS011;59888;55.814;37.132;2023-05-15T05:02:54;3.85;;;1.67;;
71395;SDS011;59888;55.814;37.132;2023-05-15T05:05:20;4.63;;;1.77;;
71395;SDS011;59888;55.814;37.132;2023-05-15T05:07:46;3.92;;;1.50;;
71395;SDS011;59888;55.814;37.132;2023-05-15T05:10:12;2.75;;;1.20;;
71395;SDS011;59888;55.814;37.132;2023-05-15T05:12:38;3.67;;;1.58;;
71395;SDS011;59888;55.814;37.132;2023-05-15T05:15:04;2.13;;;1.40;;
71395;SDS011;59888;55.814;37.132;2023-05-15T05:17:31;2.38;;;1.20;;
71395;SDS011;59888;55.814;37.132;2023-05-15T05:19:57;3.90;;;1.50;;
71395;SDS011;59888;55.814;37.132;2023-05-15T05:22:23;3.83;;;1.30;;
71395;SDS011;59888;55.814;37.132;2023-05-15T05:24:49;3.78;;;1.23;;
71395;SDS011;59888;55.814;37.132;2023-05-15T05:27:17;4.85;;;1.20;;
71395;SDS011;59888;55.814;37.132;2023-05-15T05:29:43;2.35;;;1.20;;
71395;SDS011;59888;55.814;37.132;2023-05-15T05:32:10;9.10;;;1.30;;
71395;SDS011;59888;55.814;37.132;2023-05-15T05:34:36;1.60;;;1.00;;
71395;SDS011;59888;55.814;37.132;2023-05-15T05:37:02;1.65;;;0.98;;
71395;SDS011;59888;55.814;37.132;2023-05-15T05:39:28;2.47;;;1.10;;
71395;SDS011;59888;55.814;37.132;2023-05-15T05:41:54;1.83;;;0.85;;
71395;SDS011;59888;55.814;37.132;2023-05-15T05:44:20;3.20;;;0.90;;
71395;SDS011;59888;55.814;37.132;2023-05-15T05:46:46;1.98;;;1.02;;
71395;SDS011;59888;55.814;37.132;2023-05-15T05:49:12;2.03;;;0.98;;
71395;SDS011;59888;55.814;37.132;2023-05-15T05:51:38;2.53;;;0.88;;
71395;SDS011;59888;55.814;37.132;2023-05-15T05:54:04;1.50;;;0.88;;
71395;SDS011;59888;55.814;37.132;2023-05-15T05:56:29;4.20;;;0.90;;
71395;SDS011;59888;55.814;37.132;2023-05-15T05:58:55;6.07;;;1.05;;
71395;SDS011;59888;55.814;37.132;2023-05-15T06:01:21;1.65;;;0.88;;
71395;SDS011;59888;55.814;37.132;2023-05-15T06:03:47;1.80;;;0.90;;
71395;SDS011;59888;55.814;37.132;2023-05-15T06:06:13;2.47;;;0.90;;
71395;SDS011;59888;55.814;37.132;2023-05-15T06:08:39;3.15;;;1.00;;
71395;SDS011;59888;55.814;37.132;2023-05-15T06:11:05;3.25;;;1.45;;
71395;SDS011;59888;55.814;37.132;2023-05-15T06:13:31;3.80;;;1.40;;
71395;SDS011;59888;55.814;37.132;2023-05-15T06:15:57;2.60;;;1.30;;
71395;SDS011;59888;55.814;37.132;2023-05-15T06:18:23;4.65;;;1.30;;
71395;SDS011;59888;55.814;37.132;2023-05-15T06:20:48;2.17;;;1.20;;
71395;SDS011;59888;55.814;37.132;2023-05-15T06:23:14;4.28;;;1.30;;
71395;SDS011;59888;55.814;37.132;2023-05-15T06:25:40;2.67;;;1.40;;
71395;SDS011;59888;55.814;37.132;2023-05-15T06:28:06;2.65;;;1.30;;
71395;SDS011;59888;55.814;37.132;2023-05-15T06:30:32;1.67;;;0.98;;
71395;SDS011;59888;55.814;37.132;2023-05-15T06:32:58;1.40;;;0.90;;
71395;SDS011;59888;55.814;37.132;2023-05-15T06:35:24;4.53;;;1.30;;
71395;SDS011;59888;55.814;37.132;2023-05-15T06:37:50;2.30;;;1.33;;
71395;SDS011;59888;55.814;37.132;2023-05-15T06:40:17;3.42;;;1.83;;
71395;SDS011;59888;55.814;37.132;2023-05-15T06:42:43;3.25;;;1.50;;
71395;SDS011;59888;55.814;37.132;2023-05-15T06:45:09;5.22;;;1.50;;
71395;SDS011;59888;55.814;37.132;2023-05-15T06:47:35;2.80;;;1.73;;
71395;SDS011;59888;55.814;37.132;2023-05-15T06:50:01;5.03;;;1.50;;
71395;SDS011;59888;55.814;37.132;2023-05-15T06:52:29;2.33;;;1.55;;
71395;SDS011;59888;55.814;37.132;2023-05-15T06:54:55;8.15;;;1.58;;
71395;SDS011;59888;55.814;37.132;2023-05-15T06:57:21;2.35;;;1.60;;
71395;SDS011;59888;55.814;37.132;2023-05-15T06:59:47;3.67;;;1.40;;
71395;SDS011;59888;55.814;37.132;2023-05-15T07:02:13;2.55;;;1.40;;
71395;SDS011;59888;55.814;37.132;2023-05-15T07:04:39;1.95;;;1.10;;
71395;SDS011;59888;55.814;37.132;2023-05-15T07:07:05;3.30;;;1.10;;
71395;SDS011;59888;55.814;37.132;2023-05-15T07:09:31;1.60;;;1.00;;
71395;SDS011;59888;55.814;37.132;2023-05-15T07:11:57;5.07;;;1.27;;
71395;SDS011;59888;55.814;37.132;2023-05-15T07:14:23;3.45;;;1.30;;
71395;SDS011;59888;55.814;37.132;2023-05-15T07:16:49;7.28;;;1.60;;
71395;SDS011;59888;55.814;37.132;2023-05-15T07:19:18;5.03;;;1.10;;
71395;SDS011;59888;55.814;37.132;2023-05-15T07:21:45;1.83;;;1.30;;
71395;SDS011;59888;55.814;37.132;2023-05-15T07:24:11;1.98;;;1.30;;
71395;SDS011;59888;55.814;37.132;2023-05-15T07:26:37;2.67;;;1.30;;
71395;SDS011;59888;55.814;37.132;2023-05-15T07:29:03;2.55;;;1.25;;
71395;SDS011;59888;55.814;37.132;2023-05-15T07:31:29;2.88;;;1.20;;
71395;SDS011;59888;55.814;37.132;2023-05-15T07:33:58;7.05;;;1.67;;
71395;SDS011;59888;55.814;37.132;2023-05-15T07:36:23;5.82;;;1.38;;
71395;SDS011;59888;55.814;37.132;2023-05-15T07:38:49;2.20;;;1.23;;
71395;SDS011;59888;55.814;37.132;2023-05-15T07:41:16;2.72;;;1.33;;
71395;SDS011;59888;55.814;37.132;2023-05-15T07:43:41;4.93;;;1.40;;
71395;SDS011;59888;55.814;37.132;2023-05-15T07:46:07;4.00;;;1.63;;
71395;SDS011;59888;55.814;37.132;2023-05-15T07:48:33;3.22;;;1.20;;
71395;SDS011;59888;55.814;37.132;2023-05-15T07:51:00;6.88;;;1.42;;
71395;SDS011;59888;55.814;37.132;2023-05-15T07:53:26;6.82;;;1.60;;
71395;SDS011;59888;55.814;37.132;2023-05-15T07:55:51;2.92;;;1.60;;
71395;SDS011;59888;55.814;37.132;2023-05-15T07:58:17;4.32;;;1.40;;
71395;SDS011;59888;55.814;37.132;2023-05-15T08:00:43;3.08;;;1.40;;
71395;SDS011;59888;55.814;37.132;2023-05-15T08:03:09;2.55;;;1.30;;
71395;SDS011;59888;55.814;37.132;2023-05-15T08:05:36;3.45;;;1.40;;
71395;SDS011;59888;55.814;37.132;2023-05-15T08:08:02;5.05;;;1.30;;
71395;SDS011;59888;55.814;37.132;2023-05-15T08:10:28;3.10;;;1.30;;
71395;SDS011;59888;55.814;37.132;2023-05-15T08:12:54;5.15;;;1.60;;
71395;SDS011;59888;55.814;37.132;2023-05-15T08:15:20;3.40;;;1.48;;
71395;SDS011;59888;55.814;37.132;2023-05-15T08:17:47;2.92;;;1.60;;
71395;SDS011;59888;55.814;37.132;2023-05-15T08:20:13;6.03;;;2.30;;
71395;SDS011;59888;55.814;37.132;2023-05-15T08:22:39;3.88;;;1.75;;
71395;SDS011;59888;55.814;37.132;2023-05-15T08:25:05;3.47;;;1.35;;
71395;SDS011;59888;55.814;37.132;2023-05-15T08:27:35;5.38;;;1.77;;
71395;SDS011;59888;55.814;37.132;2023-05-15T08:30:01;6.30;;;1.95;;
71395;SDS011;59888;55.814;37.132;2023-05-15T08:32:33;3.88;;;1.50;;
71395;SDS011;59888;55.814;37.132;2023-05-15T08:34:59;5.35;;;1.40;;
71395;SDS011;59888;55.814;37.132;2023-05-15T08:37:26;4.25;;;1.70;;
71395;SDS011;59888;55.814;37.132;2023-05-15T08:39:53;6.10;;;1.73;;
71395;SDS011;59888;55.814;37.132;2023-05-15T08:45:00;5.90;;;1.40;;
71395;SDS011;59888;55.814;37.132;2023-05-15T08:47:49;8.00;;;1.20;;
71395;SDS011;59888;55.814;37.132;2023-05-15T08:50:17;3.10;;;1.30;;
71395;SDS011;59888;55.814;37.132;2023-05-15T08:52:46;4.20;;;1.25;;
71395;SDS011;59888;55.814;37.132;2023-05-15T08:55:15;3.80;;;1.35;;
71395;SDS011;59888;55.814;37.132;2023-05-15T08:57:46;3.20;;;1.40;;
71395;SDS011;59888;55.814;37.132;2023-05-15T09:00:13;2.80;;;1.20;;
71395;SDS011;59888;55.814;37.132;2023-05-15T09:03:01;4.88;;;1.27;;
71395;SDS011;59888;55.814;37.132;2023-05-15T09:05:50;5.45;;;1.67;;
71395;SDS011;59888;55.814;37.132;2023-05-15T09:08:24;3.20;;;1.40;;
71395;SDS011;59888;55.814;37.132;2023-05-15T09:10:57;2.85;;;1.40;;
71395;SDS011;59888;55.814;37.132;2023-05-15T09:13:23;4.22;;;1.40;;
71395;SDS011;59888;55.814;37.132;2023-05-15T09:15:51;2.28;;;1.30;;
71395;SDS011;59888;55.814;37.132;2023-05-15T09:18:17;3.63;;;1.50;;
71395;SDS011;59888;55.814;37.132;2023-05-15T09:20:45;3.05;;;1.40;;
71395;SDS011;59888;55.814;37.132;2023-05-15T09:23:21;4.28;;;1.60;;
71395;SDS011;59888;55.814;37.132;2023-05-15T09:25:50;9.45;;;1.83;;
71395;SDS011;59888;55.814;37.132;2023-05-15T09:28:24;2.72;;;1.40;;
71395;SDS011;59888;55.814;37.132;2023-05-15T09:30:55;3.90;;;1.60;;
71395;SDS011;59888;55.814;37.132;2023-05-15T09:33:26;2.45;;;1.50;;
71395;SDS011;59888;55.814;37.132;2023-05-15T09:35:53;3.08;;;1.20;;
71395;SDS011;59888;55.814;37.132;2023-05-15T09:38:19;3.05;;;1.45;;
71395;SDS011;59888;55.814;37.132;2023-05-15T09:40:45;2.70;;;1.13;;
71395;SDS011;59888;55.814;37.132;2023-05-15T09:43:14;4.95;;;1.33;;
71395;SDS011;59888;55.814;37.132;2023-05-15T09:45:40;3.55;;;1.50;;
71395;SDS011;59888;55.814;37.132;2023-05-15T09:48:07;2.28;;;1.20;;
71395;SDS011;59888;55.814;37.132;2023-05-15T09:50:36;3.45;;;1.23;;
71395;SDS011;59888;55.814;37.132;2023-05-15T09:53:04;2.30;;;0.95;;
71395;SDS011;59888;55.814;37.132;2023-05-15T09:55:33;4.35;;;1.30;;
71395;SDS011;59888;55.814;37.132;2023-05-15T10:00:34;3.28;;;1.50;;
71395;SDS011;59888;55.814;37.132;2023-05-15T10:03:01;3.90;;;1.52;;
71395;SDS011;59888;55.814;37.132;2023-05-15T10:05:28;3.22;;;1.30;;
71395;SDS011;59888;55.814;37.132;2023-05-15T10:07:56;3.38;;;1.75;;
71395;SDS011;59888;55.814;37.132;2023-05-15T10:10:22;4.40;;;1.20;;
71395;SDS011;59888;55.814;37.132;2023-05-15T10:12:50;4.20;;;1.45;;
71395;SDS011;59888;55.814;37.132;2023-05-15T10:15:17;2.78;;;1.30;;
71395;SDS011;59888;55.814;37.132;2023-05-15T10:17:44;4.80;;;1.30;;
71395;SDS011;59888;55.814;37.132;2023-05-15T10:20:12;2.10;;;1.10;;
71395;SDS011;59888;55.814;37.132;2023-05-15T10:22:40;7.07;;;1.45;;
71395;SDS011;59888;55.814;37.132;2023-05-15T10:27:56;2.83;;;1.23;;
71395;SDS011;59888;55.814;37.132;2023-05-15T10:30:23;3.35;;;1.27;;
71395;SDS011;59888;55.814;37.132;2023-05-15T10:32:50;3.20;;;1.20;;
71395;SDS011;59888;55.814;37.132;2023-05-15T10:35:16;2.17;;;1.10;;
71395;SDS011;59888;55.814;37.132;2023-05-15T10:37:46;2.95;;;1.10;;
71395;SDS011;59888;55.814;37.132;2023-05-15T10:40:13;3.47;;;1.00;;
71395;SDS011;59888;55.814;37.132;2023-05-15T10:42:41;3.47;;;1.33;;
71395;SDS011;59888;55.814;37.132;2023-05-15T10:45:09;3.17;;;1.30;;
71395;SDS011;59888;55.814;37.132;2023-05-15T10:47:36;3.65;;;1.15;;
71395;SDS011;59888;55.814;37.132;2023-05-15T10:50:03;3.20;;;1.10;;
71395;SDS011;59888;55.814;37.132;2023-05-15T10:52:31;3.08;;;1.23;;
71395;SDS011;59888;55.814;37.132;2023-05-15T10:54:58;2.50;;;1.10;;
71395;SDS011;59888;55.814;37.132;2023-05-15T10:57:27;5.15;;;1.30;;
71395;SDS011;59888;55.814;37.132;2023-05-15T10:59:54;2.70;;;1.27;;
71395;SDS011;59888;55.814;37.132;2023-05-15T11:02:24;2.75;;;1.10;;
71395;SDS011;59888;55.814;37.132;2023-05-15T11:05:00;4.47;;;1.30;;
71395;SDS011;59888;55.814;37.132;2023-05-15T11:07:31;4.22;;;1.40;;
71395;SDS011;59888;55.814;37.132;2023-05-15T11:09:57;7.60;;;1.20;;
71395;SDS011;59888;55.814;37.132;2023-05-15T11:12:23;8.52;;;1.27;;
71395;SDS011;59888;55.814;37.132;2023-05-15T11:17:24;3.63;;;1.10;;
71395;SDS011;59888;55.814;37.132;2023-05-15T11:22:20;2.42;;;1.20;;
71395;SDS011;59888;55.814;37.132;2023-05-15T11:27:40;2.75;;;1.10;;
71395;SDS011;59888;55.814;37.132;2023-05-15T11:30:14;4.00;;;1.25;;
71395;SDS011;59888;55.814;37.132;2023-05-15T11:32:54;4.10;;;1.20;;
71395;SDS011;59888;55.814;37.132;2023-05-15T11:35:36;4.40;;;1.10;;
71395;SDS011;59888;55.814;37.132;2023-05-15T11:40:44;3.20;;;1.50;;
71395;SDS011;59888;55.814;37.132;2023-05-15T11:45:50;2.97;;;1.13;;
71395;SDS011;59888;55.814;37.132;2023-05-15T11:48:21;2.80;;;1.10;;
71395;SDS011;59888;55.814;37.132;2023-05-15T11:50:48;3.25;;;1.08;;
71395;SDS011;59888;55.814;37.132;2023-05-15T11:53:15;3.38;;;1.17;;
71395;SDS011;59888;55.814;37.132;2023-05-15T11:55:41;5.07;;;1.20;;
71395;SDS011;59888;55.814;37.132;2023-05-15T11:58:11;3.70;;;1.10;;
71395;SDS011;59888;55.814;37.132;2023-05-15T12:00:40;3.55;;;1.10;;
71395;SDS011;59888;55.814;37.132;2023-05-15T12:03:10;2.25;;;1.00;;
71395;SDS011;59888;55.814;37.132;2023-05-15T12:05:41;3.10;;;1.23;;
71395;SDS011;59888;55.814;37.132;2023-05-15T12:08:10;3.03;;;1.20;;
71395;SDS011;59888;55.814;37.132;2023-05-15T12:10:40;6.45;;;1.25;;
71395;SDS011;59888;55.814;37.132;2023-05-15T12:13:09;3.10;;;1.15;;
71395;SDS011;59888;55.814;37.132;2023-05-15T12:15:43;4.20;;;1.45;;
71395;SDS011;59888;55.814;37.132;2023-05-15T12:18:10;3.97;;;1.10;;
71395;SDS011;59888;55.814;37.132;2023-05-15T12:20:37;4.47;;;1.20;;
71395;SDS011;59888;55.814;37.132;2023-05-15T12:23:05;2.88;;;1.08;;
71395;SDS011;59888;55.814;37.132;2023-05-15T12:25:34;4.30;;;1.27;;
71395;SDS011;59888;55.814;37.132;2023-05-15T12:28:02;4.13;;;1.00;;
71395;SDS011;59888;55.814;37.132;2023-05-15T12:30:29;1.80;;;1.00;;
71395;SDS011;59888;55.814;37.132;2023-05-15T12:32:59;3.10;;;1.05;;
71395;SDS011;59888;55.814;37.132;2023-05-15T12:35:27;3.03;;;1.10;;
71395;SDS011;59888;55.814;37.132;2023-05-15T12:37:52;2.78;;;1.20;;
71395;SDS011;59888;55.814;37.132;2023-05-15T12:40:19;3.70;;;1.30;;
71395;SDS011;59888;55.814;37.132;2023-05-15T12:42:50;3.13;;;1.17;;
71395;SDS011;59888;55.814;37.132;2023-05-15T12:45:20;2.45;;;1.20;;
71395;SDS011;59888;55.814;37.132;2023-05-15T12:47:48;2.03;;;1.10;;
71395;SDS011;59888;55.814;37.132;2023-05-15T12:50:19;6.43;;;1.55;;
71395;SDS011;59888;55.814;37.132;2023-05-15T12:52:50;2.90;;;1.40;;
71395;SDS011;59888;55.814;37.132;2023-05-15T12:55:24;3.10;;;1.30;;
71395;SDS011;59888;55.814;37.132;2023-05-15T12:57:55;2.45;;;1.45;;
71395;SDS011;59888;55.814;37.132;2023-05-15T13:00:24;2.92;;;1.05;;
71395;SDS011;59888;55.814;37.132;2023-05-15T13:02:53;3.72;;;1.40;;
71395;SDS011;59888;55.814;37.132;2023-05-15T13:05:33;2.60;;;1.35;;
71395;SDS011;59888;55.814;37.132;2023-05-15T13:08:00;2.95;;;1.17;;
71395;SDS011;59888;55.814;37.132;2023-05-15T13:10:28;4.93;;;1.50;;
71395;SDS011;59888;55.814;37.132;2023-05-15T13:12:57;2.30;;;1.42;;
71395;SDS011;59888;55.814;37.132;2023-05-15T13:15:33;3.78;;;1.20;;
71395;SDS011;59888;55.814;37.132;2023-05-15T13:18:02;4.32;;;1.58;;
71395;SDS011;59888;55.814;37.132;2023-05-15T13:20:40;3.67;;;1.50;;
71395;SDS011;59888;55.814;37.132;2023-05-15T13:23:15;3.60;;;1.40;;
71395;SDS011;59888;55.814;37.132;2023-05-15T13:25:42;2.92;;;1.55;;
71395;SDS011;59888;55.814;37.132;2023-05-15T13:28:09;4.47;;;1.58;;
71395;SDS011;59888;55.814;37.132;2023-05-15T13:30:35;6.55;;;1.38;;
71395;SDS011;59888;55.814;37.132;2023-05-15T13:33:10;3.78;;;1.30;;
71395;SDS011;59888;55.814;37.132;2023-05-15T13:35:37;2.40;;;0.90;;
71395;SDS011;59888;55.814;37.132;2023-05-15T13:38:04;4.20;;;1.20;;
71395;SDS011;59888;55.814;37.132;2023-05-15T13:40:30;4.00;;;1.10;;
71395;SDS011;59888;55.814;37.132;2023-05-15T13:43:01;2.47;;;1.13;;
71395;SDS011;59888;55.814;37.132;2023-05-15T13:45:27;2.63;;;1.13;;
71395;SDS011;59888;55.814;37.132;2023-05-15T13:47:54;2.83;;;1.00;;
71395;SDS011;59888;55.814;37.132;2023-05-15T13:50:20;3.42;;;1.02;;
71395;SDS011;59888;55.814;37.132;2023-05-15T13:52:46;4.85;;;1.20;;
71395;SDS011;59888;55.814;37.132;2023-05-15T13:55:12;1.92;;;1.00;;
71395;SDS011;59888;55.814;37.132;2023-05-15T13:57:39;2.70;;;1.20;;
71395;SDS011;59888;55.814;37.132;2023-05-15T14:00:09;4.63;;;1.50;;
71395;SDS011;59888;55.814;37.132;2023-05-15T14:02:41;2.40;;;1.05;;
71395;SDS011;59888;55.814;37.132;2023-05-15T14:05:09;1.85;;;0.88;;
71395;SDS011;59888;55.814;37.132;2023-05-15T14:07:37;2.78;;;0.95;;
71395;SDS011;59888;55.814;37.132;2023-05-15T14:10:04;5.45;;;1.00;;
71395;SDS011;59888;55.814;37.132;2023-05-15T14:12:32;4.15;;;1.15;;
71395;SDS011;59888;55.814;37.132;2023-05-15T14:14:59;2.25;;;1.00;;
71395;SDS011;59888;55.814;37.132;2023-05-15T14:17:25;1.90;;;1.10;;
71395;SDS011;59888;55.814;37.132;2023-05-15T14:19:52;2.70;;;0.98;;
71395;SDS011;59888;55.814;37.132;2023-05-15T14:22:18;2.60;;;1.20;;
71395;SDS011;59888;55.814;37.132;2023-05-15T14:24:44;5.63;;;1.20;;
71395;SDS011;59888;55.814;37.132;2023-05-15T14:27:10;3.20;;;1.10;;
71395;SDS011;59888;55.814;37.132;2023-05-15T14:29:37;6.75;;;1.05;;
71395;SDS011;59888;55.814;37.132;2023-05-15T14:32:04;3.85;;;1.15;;
71395;SDS011;59888;55.814;37.132;2023-05-15T14:34:30;2.20;;;1.00;;
71395;SDS011;59888;55.814;37.132;2023-05-15T14:36:56;4.20;;;1.00;;
71395;SDS011;59888;55.814;37.132;2023-05-15T14:39:21;5.78;;;1.30;;
71395;SDS011;59888;55.814;37.132;2023-05-15T14:41:47;2.58;;;1.00;;
71395;SDS011;59888;55.814;37.132;2023-05-15T14:44:13;3.47;;;1.10;;
71395;SDS011;59888;55.814;37.132;2023-05-15T14:46:40;4.53;;;1.10;;
71395;SDS011;59888;55.814;37.132;2023-05-15T14:49:07;6.80;;;1.20;;
71395;SDS011;59888;55.814;37.132;2023-05-15T14:51:34;3.70;;;1.10;;
71395;SDS011;59888;55.814;37.132;2023-05-15T14:53:59;3.13;;;0.95;;
71395;SDS011;59888;55.814;37.132;2023-05-15T14:56:25;5.30;;;1.10;;
71395;SDS011;59888;55.814;37.132;2023-05-15T14:58:52;3.97;;;1.10;;
71395;SDS011;59888;55.814;37.132;2023-05-15T15:01:18;3.70;;;1.00;;
71395;SDS011;59888;55.814;37.132;2023-05-15T15:03:44;5.32;;;1.08;;
71395;SDS011;59888;55.814;37.132;2023-05-15T15:06:11;3.97;;;1.25;;
71395;SDS011;59888;55.814;37.132;2023-05-15T15:08:37;2.70;;;1.00;;
71395;SDS011;59888;55.814;37.132;2023-05-15T15:11:03;2.13;;;1.00;;
71395;SDS011;59888;55.814;37.132;2023-05-15T15:13:31;1.52;;;0.90;;
71395;SDS011;59888;55.814;37.132;2023-05-15T15:15:57;2.50;;;1.10;;
71395;SDS011;59888;55.814;37.132;2023-05-15T15:18:23;2.75;;;1.20;;